sensor_id;sensor_type;location;lat;lon;timestamp;pressure;altitude;pressure_sealevel;temperature;humidity
73024;BME280;61199;47.526;8.538;2022-09-09T00:01:23;96253.53;;;18.75;62.92
73024;BME280;61199;47.526;8.538;2022-09-09T00:03:57;96249.13;;;18.82;62.60
73024;BME280;61199;47.526;8.538;2022-09-09T00:06:27;96244.44;;;18.84;62.70
73024;BME280;61199;47.526;8.538;2022-09-09T00:09:12;96244.44;;;18.63;63.27
73024;BME280;61199;47.526;8.538;2022-09-09T00:11:52;96237.34;;;18.70;62.96
73024;BME280;61199;47.526;8.538;2022-09-09T00:16:52;96239.13;;;18.84;62.79
73024;BME280;61199;47.526;8.538;2022-09-09T00:19:23;96232.91;;;18.98;62.64
73024;BME280;61199;47.526;8.538;2022-09-09T00:22:13;96231.50;;;18.95;62.90
73024;BME280;61199;47.526;8.538;2022-09-09T00:25:12;96227.81;;;18.96;63.13
73024;BME280;61199;47.526;8.538;2022-09-09T00:27:48;96232.28;;;18.96;63.13
73024;BME280;61199;47.526;8.538;2022-09-09T00:30:20;96231.84;;;18.92;63.31
73024;BME280;61199;47.526;8.538;2022-09-09T00:32:50;96239.25;;;18.55;64.80
73024;BME280;61199;47.526;8.538;2022-09-09T00:35:31;96238.16;;;18.49;64.91
73024;BME280;61199;47.526;8.538;2022-09-09T00:38:10;96235.75;;;18.54;64.81
73024;BME280;61199;47.526;8.538;2022-09-09T00:40:47;96238.47;;;18.61;64.83
73024;BME280;61199;47.526;8.538;2022-09-09T00:46:16;96247.84;;;18.78;64.59
73024;BME280;61199;47.526;8.538;2022-09-09T00:57:36;96241.00;;;18.69;64.97
73024;BME280;61199;47.526;8.538;2022-09-09T01:00:25;96245.34;;;18.55;65.63
73024;BME280;61199;47.526;8.538;2022-09-09T01:02:59;96243.78;;;18.61;65.57
73024;BME280;61199;47.526;8.538;2022-09-09T01:05:36;96247.09;;;18.63;65.51
73024;BME280;61199;47.526;8.538;2022-09-09T01:08:22;96257.72;;;18.63;65.58
73024;BME280;61199;47.526;8.538;2022-09-09T01:10:54;96250.00;;;18.68;65.14
73024;BME280;61199;47.526;8.538;2022-09-09T01:13:26;96259.56;;;18.48;66.05
73024;BME280;61199;47.526;8.538;2022-09-09T01:15:53;96262.34;;;18.61;65.42
73024;BME280;61199;47.526;8.538;2022-09-09T01:18:30;96267.88;;;18.59;65.51
73024;BME280;61199;47.526;8.538;2022-09-09T01:28:53;96257.19;;;18.53;64.85
73024;BME280;61199;47.526;8.538;2022-09-09T01:31:37;96256.34;;;18.52;64.74
73024;BME280;61199;47.526;8.538;2022-09-09T01:34:11;96263.97;;;18.41;64.85
73024;BME280;61199;47.526;8.538;2022-09-09T01:36:49;96263.75;;;18.57;64.51
73024;BME280;61199;47.526;8.538;2022-09-09T01:39:19;96265.00;;;18.61;64.35
73024;BME280;61199;47.526;8.538;2022-09-09T01:41:47;96250.72;;;18.62;64.59
73024;BME280;61199;47.526;8.538;2022-09-09T01:44:13;96254.91;;;18.71;64.36
73024;BME280;61199;47.526;8.538;2022-09-09T01:46:40;96255.16;;;18.55;64.78
73024;BME280;61199;47.526;8.538;2022-09-09T01:49:07;96248.78;;;18.70;64.54
73024;BME280;61199;47.526;8.538;2022-09-09T01:51:36;96244.44;;;18.63;64.82
73024;BME280;61199;47.526;8.538;2022-09-09T01:54:05;96249.03;;;18.54;64.88
73024;BME280;61199;47.526;8.538;2022-09-09T01:59:32;96259.69;;;18.61;64.92
73024;BME280;61199;47.526;8.538;2022-09-09T02:02:13;96262.09;;;18.35;65.76
73024;BME280;61199;47.526;8.538;2022-09-09T02:04:59;96262.97;;;18.42;65.63
73024;BME280;61199;47.526;8.538;2022-09-09T02:07:56;96267.53;;;18.48;65.62
73024;BME280;61199;47.526;8.538;2022-09-09T02:10:45;96271.81;;;18.49;65.37
73024;BME280;61199;47.526;8.538;2022-09-09T02:13:14;96269.16;;;18.49;65.66
73024;BME280;61199;47.526;8.538;2022-09-09T02:15:52;96265.41;;;18.58;65.17
73024;BME280;61199;47.526;8.538;2022-09-09T02:21:28;96271.72;;;18.57;65.78
73024;BME280;61199;47.526;8.538;2022-09-09T02:23:56;96270.31;;;18.61;65.86
73024;BME280;61199;47.526;8.538;2022-09-09T02:26:25;96271.84;;;18.70;65.41
73024;BME280;61199;47.526;8.538;2022-09-09T02:28:55;96281.09;;;18.74;65.28
73024;BME280;61199;47.526;8.538;2022-09-09T02:31:24;96276.97;;;18.71;65.31
73024;BME280;61199;47.526;8.538;2022-09-09T02:33:55;96282.34;;;18.78;65.28
73024;BME280;61199;47.526;8.538;2022-09-09T02:36:25;96278.22;;;18.90;64.73
73024;BME280;61199;47.526;8.538;2022-09-09T02:38:53;96283.13;;;18.72;65.21
73024;BME280;61199;47.526;8.538;2022-09-09T02:41:24;96291.31;;;18.77;64.97
73024;BME280;61199;47.526;8.538;2022-09-09T02:43:52;96284.19;;;18.77;65.13
73024;BME280;61199;47.526;8.538;2022-09-09T02:46:32;96294.47;;;18.66;65.77
73024;BME280;61199;47.526;8.538;2022-09-09T02:49:08;96287.25;;;18.60;65.94
73024;BME280;61199;47.526;8.538;2022-09-09T02:51:49;96279.66;;;18.57;66.31
73024;BME280;61199;47.526;8.538;2022-09-09T02:54:26;96282.84;;;18.67;66.13
73024;BME280;61199;47.526;8.538;2022-09-09T02:56:54;96288.28;;;18.80;65.84
73024;BME280;61199;47.526;8.538;2022-09-09T02:59:22;96293.59;;;18.80;65.71
73024;BME280;61199;47.526;8.538;2022-09-09T03:01:48;96302.66;;;18.85;65.65
73024;BME280;61199;47.526;8.538;2022-09-09T03:04:15;96287.16;;;18.89;65.68
73024;BME280;61199;47.526;8.538;2022-09-09T03:06:41;96290.34;;;18.99;65.04
73024;BME280;61199;47.526;8.538;2022-09-09T03:09:07;96293.00;;;18.99;65.20
73024;BME280;61199;47.526;8.538;2022-09-09T03:11:36;96285.53;;;19.09;64.78
73024;BME280;61199;47.526;8.538;2022-09-09T03:14:04;96284.66;;;19.02;65.38
73024;BME280;61199;47.526;8.538;2022-09-09T03:16:30;96286.41;;;19.16;64.15
73024;BME280;61199;47.526;8.538;2022-09-09T03:18:59;96289.34;;;19.21;64.25
73024;BME280;61199;47.526;8.538;2022-09-09T03:21:25;96284.31;;;19.11;64.40
73024;BME280;61199;47.526;8.538;2022-09-09T03:23:51;96290.47;;;19.12;64.84
73024;BME280;61199;47.526;8.538;2022-09-09T03:26:18;96278.59;;;19.08;64.74
73024;BME280;61199;47.526;8.538;2022-09-09T03:28:45;96287.19;;;19.10;64.14
73024;BME280;61199;47.526;8.538;2022-09-09T03:31:12;96278.44;;;19.16;64.20
73024;BME280;61199;47.526;8.538;2022-09-09T03:33:38;96280.19;;;19.23;63.64
73024;BME280;61199;47.526;8.538;2022-09-09T03:36:07;96275.91;;;19.22;63.84
73024;BME280;61199;47.526;8.538;2022-09-09T03:38:34;96274.13;;;19.15;64.65
73024;BME280;61199;47.526;8.538;2022-09-09T03:41:01;96277.69;;;19.01;65.55
73024;BME280;61199;47.526;8.538;2022-09-09T03:43:28;96265.56;;;18.56;66.66
73024;BME280;61199;47.526;8.538;2022-09-09T03:45:55;96277.66;;;18.59;66.78
73024;BME280;61199;47.526;8.538;2022-09-09T03:48:24;96274.22;;;17.86;68.72
73024;BME280;61199;47.526;8.538;2022-09-09T03:50:54;96285.16;;;17.40;71.31
73024;BME280;61199;47.526;8.538;2022-09-09T03:53:22;96295.38;;;16.98;73.21
73024;BME280;61199;47.526;8.538;2022-09-09T03:55:51;96296.16;;;16.61;75.04
73024;BME280;61199;47.526;8.538;2022-09-09T03:58:24;96298.56;;;16.40;75.91
73024;BME280;61199;47.526;8.538;2022-09-09T04:00:58;96303.03;;;16.32;75.59
73024;BME280;61199;47.526;8.538;2022-09-09T04:03:25;96299.56;;;16.31;76.14
73024;BME280;61199;47.526;8.538;2022-09-09T04:05:55;96307.78;;;16.52;75.27
73024;BME280;61199;47.526;8.538;2022-09-09T04:08:22;96306.84;;;16.37;76.60
73024;BME280;61199;47.526;8.538;2022-09-09T04:10:49;96300.16;;;16.49;76.39
73024;BME280;61199;47.526;8.538;2022-09-09T04:13:17;96296.53;;;16.50;75.92
73024;BME280;61199;47.526;8.538;2022-09-09T04:15:50;96284.50;;;16.70;75.36
73024;BME280;61199;47.526;8.538;2022-09-09T04:18:16;96274.75;;;16.93;74.19
73024;BME280;61199;47.526;8.538;2022-09-09T04:20:49;96276.91;;;17.12;73.60
73024;BME280;61199;47.526;8.538;2022-09-09T04:23:17;96282.84;;;17.14;73.50
73024;BME280;61199;47.526;8.538;2022-09-09T04:25:49;96284.50;;;16.93;74.58
73024;BME280;61199;47.526;8.538;2022-09-09T04:28:17;96288.47;;;16.36;76.81
73024;BME280;61199;47.526;8.538;2022-09-09T04:30:44;96285.09;;;16.19;78.46
73024;BME280;61199;47.526;8.538;2022-09-09T04:33:11;96288.72;;;16.18;78.34
73024;BME280;61199;47.526;8.538;2022-09-09T04:35:38;96292.91;;;16.05;78.87
73024;BME280;61199;47.526;8.538;2022-09-09T04:38:05;96291.19;;;15.81;80.35
73024;BME280;61199;47.526;8.538;2022-09-09T04:40:34;96287.84;;;15.87;80.25
73024;BME280;61199;47.526;8.538;2022-09-09T04:43:01;96298.97;;;15.67;80.88
73024;BME280;61199;47.526;8.538;2022-09-09T04:45:29;96294.66;;;15.74;80.93
73024;BME280;61199;47.526;8.538;2022-09-09T04:47:56;96293.69;;;15.67;80.60
73024;BME280;61199;47.526;8.538;2022-09-09T04:50:23;96295.84;;;15.71;80.66
73024;BME280;61199;47.526;8.538;2022-09-09T04:52:49;96291.88;;;15.67;80.66
73024;BME280;61199;47.526;8.538;2022-09-09T04:55:15;96297.84;;;15.61;81.05
73024;BME280;61199;47.526;8.538;2022-09-09T04:57:42;96289.38;;;15.74;80.64
73024;BME280;61199;47.526;8.538;2022-09-09T05:00:09;96287.53;;;15.82;80.56
73024;BME280;61199;47.526;8.538;2022-09-09T05:02:40;96296.16;;;15.68;81.30
73024;BME280;61199;47.526;8.538;2022-09-09T05:05:07;96300.28;;;15.71;81.48
73024;BME280;61199;47.526;8.538;2022-09-09T05:07:34;96298.59;;;15.86;80.58
73024;BME280;61199;47.526;8.538;2022-09-09T05:10:00;96297.38;;;16.04;80.52
73024;BME280;61199;47.526;8.538;2022-09-09T05:12:30;96296.81;;;16.17;78.98
73024;BME280;61199;47.526;8.538;2022-09-09T05:14:57;96300.47;;;16.16;79.04
73024;BME280;61199;47.526;8.538;2022-09-09T05:17:23;96296.31;;;16.21;79.14
73024;BME280;61199;47.526;8.538;2022-09-09T05:19:50;96298.34;;;16.50;78.43
73024;BME280;61199;47.526;8.538;2022-09-09T05:22:20;96307.06;;;16.58;77.42
73024;BME280;61199;47.526;8.538;2022-09-09T05:24:46;96305.97;;;16.75;76.92
73024;BME280;61199;47.526;8.538;2022-09-09T05:27:13;96308.56;;;16.83;76.82
73024;BME280;61199;47.526;8.538;2022-09-09T05:29:39;96304.03;;;16.92;75.84
73024;BME280;61199;47.526;8.538;2022-09-09T05:32:07;96303.22;;;16.91;75.14
73024;BME280;61199;47.526;8.538;2022-09-09T05:34:40;96300.03;;;16.96;75.39
73024;BME280;61199;47.526;8.538;2022-09-09T05:37:06;96303.69;;;17.17;75.22
73024;BME280;61199;47.526;8.538;2022-09-09T05:39:34;96308.63;;;17.43;74.32
73024;BME280;61199;47.526;8.538;2022-09-09T05:42:03;96307.09;;;17.63;73.71
73024;BME280;61199;47.526;8.538;2022-09-09T05:44:30;96312.34;;;17.85;72.78
73024;BME280;61199;47.526;8.538;2022-09-09T05:46:57;96311.16;;;18.02;71.96
73024;BME280;61199;47.526;8.538;2022-09-09T05:49:24;96315.63;;;18.01;71.46
73024;BME280;61199;47.526;8.538;2022-09-09T05:51:50;96311.63;;;18.05;71.44
73024;BME280;61199;47.526;8.538;2022-09-09T05:54:17;96309.69;;;18.14;71.10
73024;BME280;61199;47.526;8.538;2022-09-09T05:56:43;96306.56;;;18.25;70.82
73024;BME280;61199;47.526;8.538;2022-09-09T05:59:15;96320.59;;;18.33;71.12
73024;BME280;61199;47.526;8.538;2022-09-09T06:01:41;96309.59;;;18.22;71.13
73024;BME280;61199;47.526;8.538;2022-09-09T06:04:08;96308.44;;;18.10;71.41
73024;BME280;61199;47.526;8.538;2022-09-09T06:06:36;96304.56;;;17.98;71.56
73024;BME280;61199;47.526;8.538;2022-09-09T06:09:06;96309.66;;;17.56;72.18
73024;BME280;61199;47.526;8.538;2022-09-09T06:11:37;96303.78;;;17.46;72.86
73024;BME280;61199;47.526;8.538;2022-09-09T06:14:05;96305.03;;;17.36;73.23
73024;BME280;61199;47.526;8.538;2022-09-09T06:16:32;96313.75;;;17.44;73.25
73024;BME280;61199;47.526;8.538;2022-09-09T06:19:02;96311.97;;;17.37;74.14
73024;BME280;61199;47.526;8.538;2022-09-09T06:21:33;96314.38;;;17.46;73.97
73024;BME280;61199;47.526;8.538;2022-09-09T06:24:00;96316.41;;;17.44;73.72
73024;BME280;61199;47.526;8.538;2022-09-09T06:26:29;96317.13;;;17.30;74.98
73024;BME280;61199;47.526;8.538;2022-09-09T06:28:57;96322.03;;;17.41;73.77
73024;BME280;61199;47.526;8.538;2022-09-09T06:31:27;96310.03;;;17.53;73.49
73024;BME280;61199;47.526;8.538;2022-09-09T06:33:57;96310.22;;;17.66;72.87
73024;BME280;61199;47.526;8.538;2022-09-09T06:38:52;96314.28;;;18.20;71.41
73024;BME280;61199;47.526;8.538;2022-09-09T06:41:19;96307.59;;;18.38;70.80
73024;BME280;61199;47.526;8.538;2022-09-09T06:43:46;96309.41;;;18.52;70.34
73024;BME280;61199;47.526;8.538;2022-09-09T06:46:24;96306.88;;;18.30;70.39
73024;BME280;61199;47.526;8.538;2022-09-09T06:48:55;96305.88;;;18.02;71.42
73024;BME280;61199;47.526;8.538;2022-09-09T06:51:36;96315.66;;;17.50;74.32
73024;BME280;61199;47.526;8.538;2022-09-09T06:54:03;96315.06;;;17.63;73.82
73024;BME280;61199;47.526;8.538;2022-09-09T06:56:33;96331.22;;;17.53;73.90
73024;BME280;61199;47.526;8.538;2022-09-09T06:59:03;96321.03;;;17.42;74.52
73024;BME280;61199;47.526;8.538;2022-09-09T07:01:35;96324.19;;;17.60;73.83
73024;BME280;61199;47.526;8.538;2022-09-09T07:04:02;96321.53;;;17.60;74.19
73024;BME280;61199;47.526;8.538;2022-09-09T07:06:32;96324.19;;;17.60;74.15
73024;BME280;61199;47.526;8.538;2022-09-09T07:09:01;96310.31;;;17.87;73.62
73024;BME280;61199;47.526;8.538;2022-09-09T07:11:32;96313.34;;;17.84;73.51
73024;BME280;61199;47.526;8.538;2022-09-09T07:14:00;96323.56;;;17.73;74.56
73024;BME280;61199;47.526;8.538;2022-09-09T07:16:27;96321.69;;;17.81;74.54
73024;BME280;61199;47.526;8.538;2022-09-09T07:18:54;96319.28;;;17.72;74.68
73024;BME280;61199;47.526;8.538;2022-09-09T07:21:28;96321.44;;;17.54;74.10
73024;BME280;61199;47.526;8.538;2022-09-09T07:23:55;96324.94;;;17.69;74.28
73024;BME280;61199;47.526;8.538;2022-09-09T07:26:24;96312.81;;;17.88;73.80
73024;BME280;61199;47.526;8.538;2022-09-09T07:28:51;96327.84;;;17.74;74.10
73024;BME280;61199;47.526;8.538;2022-09-09T07:31:21;96325.34;;;17.80;73.72
73024;BME280;61199;47.526;8.538;2022-09-09T07:33:48;96322.88;;;17.93;73.64
73024;BME280;61199;47.526;8.538;2022-09-09T07:36:23;96333.34;;;17.58;73.25
73024;BME280;61199;47.526;8.538;2022-09-09T07:38:57;96340.13;;;17.52;73.63
73024;BME280;61199;47.526;8.538;2022-09-09T07:43:52;96339.66;;;17.71;73.32
73024;BME280;61199;47.526;8.538;2022-09-09T07:46:22;96346.25;;;17.89;73.68
73024;BME280;61199;47.526;8.538;2022-09-09T07:48:53;96341.88;;;17.82;73.74
73024;BME280;61199;47.526;8.538;2022-09-09T07:51:25;96337.38;;;17.83;73.51
73024;BME280;61199;47.526;8.538;2022-09-09T07:53:54;96340.03;;;17.97;73.62
73024;BME280;61199;47.526;8.538;2022-09-09T07:56:21;96343.41;;;17.77;73.85
73024;BME280;61199;47.526;8.538;2022-09-09T07:58:50;96340.03;;;17.97;74.02
73024;BME280;61199;47.526;8.538;2022-09-09T08:01:23;96349.75;;;17.90;73.72
73024;BME280;61199;47.526;8.538;2022-09-09T08:03:56;96336.75;;;17.95;73.41
73024;BME280;61199;47.526;8.538;2022-09-09T08:06:26;96338.31;;;18.04;73.27
73024;BME280;61199;47.526;8.538;2022-09-09T08:08:53;96337.94;;;17.92;72.45
73024;BME280;61199;47.526;8.538;2022-09-09T08:11:23;96336.97;;;18.08;72.54
73024;BME280;61199;47.526;8.538;2022-09-09T08:13:50;96334.03;;;18.32;71.79
73024;BME280;61199;47.526;8.538;2022-09-09T08:16:23;96341.44;;;18.51;71.24
73024;BME280;61199;47.526;8.538;2022-09-09T08:18:51;96341.06;;;18.54;70.53
73024;BME280;61199;47.526;8.538;2022-09-09T08:21:23;96335.03;;;18.45;70.05
73024;BME280;61199;47.526;8.538;2022-09-09T08:23:51;96337.31;;;18.63;70.35
73024;BME280;61199;47.526;8.538;2022-09-09T08:26:26;96348.53;;;18.79;70.28
73024;BME280;61199;47.526;8.538;2022-09-09T08:28:55;96340.25;;;18.89;69.03
73024;BME280;61199;47.526;8.538;2022-09-09T08:31:25;96335.50;;;18.84;67.97
73024;BME280;61199;47.526;8.538;2022-09-09T08:33:52;96341.72;;;18.91;67.93
73024;BME280;61199;47.526;8.538;2022-09-09T08:36:21;96344.63;;;18.96;67.21
73024;BME280;61199;47.526;8.538;2022-09-09T08:38:49;96338.19;;;18.70;66.21
73024;BME280;61199;47.526;8.538;2022-09-09T08:52:36;96359.84;;;18.38;64.84
73024;BME280;61199;47.526;8.538;2022-09-09T08:57:39;96353.97;;;18.57;63.72
73024;BME280;61199;47.526;8.538;2022-09-09T09:00:09;96361.81;;;18.65;64.64
73024;BME280;61199;47.526;8.538;2022-09-09T09:02:52;96358.53;;;18.63;64.34
73024;BME280;61199;47.526;8.538;2022-09-09T09:05:44;96355.75;;;18.71;64.85
73024;BME280;61199;47.526;8.538;2022-09-09T09:08:31;96351.06;;;18.87;64.56
73024;BME280;61199;47.526;8.538;2022-09-09T09:11:01;96355.31;;;19.03;64.41
73024;BME280;61199;47.526;8.538;2022-09-09T09:13:55;96354.81;;;19.14;63.81
73024;BME280;61199;47.526;8.538;2022-09-09T09:16:30;96351.47;;;19.20;63.84
73024;BME280;61199;47.526;8.538;2022-09-09T09:18:59;96350.16;;;18.80;62.73
73024;BME280;61199;47.526;8.538;2022-09-09T09:21:35;96348.59;;;18.86;63.80
73024;BME280;61199;47.526;8.538;2022-09-09T09:24:05;96345.31;;;19.19;63.71
73024;BME280;61199;47.526;8.538;2022-09-09T09:26:34;96341.38;;;19.57;63.51
73024;BME280;61199;47.526;8.538;2022-09-09T09:29:14;96343.88;;;19.65;61.60
73024;BME280;61199;47.526;8.538;2022-09-09T09:31:52;96342.56;;;19.76;61.28
73024;BME280;61199;47.526;8.538;2022-09-09T09:34:23;96347.34;;;19.59;61.39
73024;BME280;61199;47.526;8.538;2022-09-09T09:36:56;96343.63;;;19.81;60.70
73024;BME280;61199;47.526;8.538;2022-09-09T09:39:28;96348.94;;;19.54;59.83
73024;BME280;61199;47.526;8.538;2022-09-09T09:42:16;96347.66;;;19.29;60.85
73024;BME280;61199;47.526;8.538;2022-09-09T09:44:48;96339.81;;;19.42;60.98
73024;BME280;61199;47.526;8.538;2022-09-09T09:47:23;96346.56;;;19.65;60.03
73024;BME280;61199;47.526;8.538;2022-09-09T09:49:57;96344.97;;;19.71;59.12
73024;BME280;61199;47.526;8.538;2022-09-09T09:52:30;96358.91;;;19.52;59.02
73024;BME280;61199;47.526;8.538;2022-09-09T09:54:58;96347.69;;;19.14;60.39
73024;BME280;61199;47.526;8.538;2022-09-09T09:57:32;96349.81;;;19.19;60.59
73024;BME280;61199;47.526;8.538;2022-09-09T10:00:04;96362.03;;;19.34;60.13
73024;BME280;61199;47.526;8.538;2022-09-09T10:02:40;96375.09;;;19.00;61.93
73024;BME280;61199;47.526;8.538;2022-09-09T10:05:18;96373.72;;;18.40;64.35
73024;BME280;61199;47.526;8.538;2022-09-09T10:10:42;96384.09;;;17.98;67.01
73024;BME280;61199;47.526;8.538;2022-09-09T10:13:27;96369.88;;;18.28;67.06
73024;BME280;61199;47.526;8.538;2022-09-09T10:18:59;96392.50;;;18.01;70.76
73024;BME280;61199;47.526;8.538;2022-09-09T10:32:37;96368.97;;;18.50;70.99
73024;BME280;61199;47.526;8.538;2022-09-09T10:38:15;96361.75;;;18.94;66.50
73024;BME280;61199;47.526;8.538;2022-09-09T10:44:00;96369.22;;;18.69;68.99
73024;BME280;61199;47.526;8.538;2022-09-09T10:46:46;96360.28;;;18.56;67.88
73024;BME280;61199;47.526;8.538;2022-09-09T10:49:26;96354.84;;;18.78;68.85
73024;BME280;61199;47.526;8.538;2022-09-09T10:52:15;96350.25;;;18.87;67.75
73024;BME280;61199;47.526;8.538;2022-09-09T10:55:10;96351.22;;;19.36;67.33
73024;BME280;61199;47.526;8.538;2022-09-09T10:57:46;96346.91;;;19.56;67.49
73024;BME280;61199;47.526;8.538;2022-09-09T11:00:17;96351.78;;;19.80;65.46
73024;BME280;61199;47.526;8.538;2022-09-09T11:02:51;96344.53;;;19.95;65.77
73024;BME280;61199;47.526;8.538;2022-09-09T11:08:17;96345.63;;;19.52;64.54
73024;BME280;61199;47.526;8.538;2022-09-09T11:11:02;96340.69;;;19.49;64.85
73024;BME280;61199;47.526;8.538;2022-09-09T11:16:24;96339.72;;;19.56;62.18
73024;BME280;61199;47.526;8.538;2022-09-09T11:18:58;96319.38;;;19.42;61.47
73024;BME280;61199;47.526;8.538;2022-09-09T11:21:30;96328.34;;;19.90;61.30
73024;BME280;61199;47.526;8.538;2022-09-09T11:24:08;96323.78;;;20.05;60.64
73024;BME280;61199;47.526;8.538;2022-09-09T11:26:40;96315.28;;;19.95;60.73
73024;BME280;61199;47.526;8.538;2022-09-09T11:33:10;96314.59;;;20.07;59.09
73024;BME280;61199;47.526;8.538;2022-09-09T11:35:38;96309.75;;;20.24;59.61
73024;BME280;61199;47.526;8.538;2022-09-09T11:41:10;96310.09;;;20.48;60.12
73024;BME280;61199;47.526;8.538;2022-09-09T11:43:41;96309.03;;;20.43;57.96
73024;BME280;61199;47.526;8.538;2022-09-09T11:46:09;96290.84;;;20.06;57.71
73024;BME280;61199;47.526;8.538;2022-09-09T11:48:40;96300.38;;;20.28;59.11
73024;BME280;61199;47.526;8.538;2022-09-09T11:51:25;96294.03;;;20.76;58.39
73024;BME280;61199;47.526;8.538;2022-09-09T11:56:32;96290.03;;;21.06;56.74
73024;BME280;61199;47.526;8.538;2022-09-09T12:01:45;96292.59;;;21.65;55.66
73024;BME280;61199;47.526;8.538;2022-09-09T12:04:16;96289.47;;;21.94;55.37
73024;BME280;61199;47.526;8.538;2022-09-09T12:06:57;96282.28;;;21.88;55.22
73024;BME280;61199;47.526;8.538;2022-09-09T12:12:05;96285.19;;;21.67;53.43
73024;BME280;61199;47.526;8.538;2022-09-09T12:17:19;96291.13;;;21.69;51.85
73024;BME280;61199;47.526;8.538;2022-09-09T12:19:46;96270.19;;;21.79;52.34
73024;BME280;61199;47.526;8.538;2022-09-09T12:22:36;96274.09;;;21.90;50.38
73024;BME280;61199;47.526;8.538;2022-09-09T12:25:44;96265.88;;;21.52;50.68
73024;BME280;61199;47.526;8.538;2022-09-09T12:28:22;96268.75;;;21.18;50.97
73024;BME280;61199;47.526;8.538;2022-09-09T12:31:25;96265.66;;;21.28;50.86
73024;BME280;61199;47.526;8.538;2022-09-09T12:33:54;96259.34;;;21.42;50.84
73024;BME280;61199;47.526;8.538;2022-09-09T12:36:28;96264.69;;;21.74;50.40
73024;BME280;61199;47.526;8.538;2022-09-09T12:38:58;96266.03;;;22.03;50.34
73024;BME280;61199;47.526;8.538;2022-09-09T12:41:27;96255.19;;;22.04;49.29
73024;BME280;61199;47.526;8.538;2022-09-09T12:44:05;96256.44;;;21.95;50.85
73024;BME280;61199;47.526;8.538;2022-09-09T12:46:45;96242.41;;;22.19;50.74
73024;BME280;61199;47.526;8.538;2022-09-09T12:49:37;96227.38;;;22.31;48.63
73024;BME280;61199;47.526;8.538;2022-09-09T12:52:23;96231.16;;;22.61;47.52
73024;BME280;61199;47.526;8.538;2022-09-09T12:54:51;96236.31;;;22.94;47.60
73024;BME280;61199;47.526;8.538;2022-09-09T12:57:22;96230.66;;;22.77;46.49
73024;BME280;61199;47.526;8.538;2022-09-09T12:59:51;96223.94;;;22.99;47.13
73024;BME280;61199;47.526;8.538;2022-09-09T13:02:22;96230.25;;;23.42;46.44
73024;BME280;61199;47.526;8.538;2022-09-09T13:04:49;96221.13;;;23.50;45.85
73024;BME280;61199;47.526;8.538;2022-09-09T13:07:18;96221.84;;;23.08;45.27
73024;BME280;61199;47.526;8.538;2022-09-09T13:09:46;96214.31;;;23.29;44.73
73024;BME280;61199;47.526;8.538;2022-09-09T13:12:21;96196.56;;;23.59;42.84
73024;BME280;61199;47.526;8.538;2022-09-09T13:14:51;96221.63;;;23.40;41.99
73024;BME280;61199;47.526;8.538;2022-09-09T13:17:24;96212.91;;;22.96;43.34
73024;BME280;61199;47.526;8.538;2022-09-09T13:19:52;96193.72;;;23.30;42.32
73024;BME280;61199;47.526;8.538;2022-09-09T13:25:01;96201.81;;;22.92;43.04
73024;BME280;61199;47.526;8.538;2022-09-09T13:29:56;96193.66;;;23.36;43.07
73024;BME280;61199;47.526;8.538;2022-09-09T13:32:24;96189.03;;;23.50;42.32
73024;BME280;61199;47.526;8.538;2022-09-09T13:34:54;96193.88;;;23.59;42.72
73024;BME280;61199;47.526;8.538;2022-09-09T13:37:36;96194.19;;;23.69;41.34
73024;BME280;61199;47.526;8.538;2022-09-09T13:40:05;96197.13;;;24.04;40.67
73024;BME280;61199;47.526;8.538;2022-09-09T13:42:35;96186.69;;;23.78;41.07
73024;BME280;61199;47.526;8.538;2022-09-09T13:45:19;96184.59;;;23.86;40.65
73024;BME280;61199;47.526;8.538;2022-09-09T13:47:49;96171.94;;;24.11;42.04
73024;BME280;61199;47.526;8.538;2022-09-09T13:52:51;96191.31;;;23.71;40.77
73024;BME280;61199;47.526;8.538;2022-09-09T13:55:23;96179.88;;;23.15;40.07
73024;BME280;61199;47.526;8.538;2022-09-09T13:57:54;96174.03;;;23.24;39.53
73024;BME280;61199;47.526;8.538;2022-09-09T14:00:22;96168.53;;;23.44;39.30
73024;BME280;61199;47.526;8.538;2022-09-09T14:02:48;96184.81;;;23.11;40.96
73024;BME280;61199;47.526;8.538;2022-09-09T14:05:15;96179.63;;;23.41;41.05
73024;BME280;61199;47.526;8.538;2022-09-09T14:07:43;96193.88;;;23.10;41.41
73024;BME280;61199;47.526;8.538;2022-09-09T14:10:11;96191.28;;;22.97;42.78
73024;BME280;61199;47.526;8.538;2022-09-09T14:12:37;96195.47;;;23.18;43.27
73024;BME280;61199;47.526;8.538;2022-09-09T14:15:06;96195.53;;;23.36;43.37
73024;BME280;61199;47.526;8.538;2022-09-09T14:17:33;96201.28;;;23.39;43.67
73024;BME280;61199;47.526;8.538;2022-09-09T14:19:59;96202.47;;;23.43;43.82
73024;BME280;61199;47.526;8.538;2022-09-09T14:22:26;96198.19;;;23.60;43.48
73024;BME280;61199;47.526;8.538;2022-09-09T14:24:52;96195.59;;;22.98;43.76
73024;BME280;61199;47.526;8.538;2022-09-09T14:27:18;96200.63;;;23.19;44.15
73024;BME280;61199;47.526;8.538;2022-09-09T14:29:45;96203.22;;;22.95;44.81
73024;BME280;61199;47.526;8.538;2022-09-09T14:32:12;96204.97;;;23.07;44.80
73024;BME280;61199;47.526;8.538;2022-09-09T14:34:39;96209.06;;;23.16;44.74
73024;BME280;61199;47.526;8.538;2022-09-09T14:37:06;96207.88;;;23.06;43.65
73024;BME280;61199;47.526;8.538;2022-09-09T14:39:33;96210.22;;;23.27;43.62
73024;BME280;61199;47.526;8.538;2022-09-09T14:41:59;96208.13;;;23.29;44.04
73024;BME280;61199;47.526;8.538;2022-09-09T14:44:25;96210.16;;;23.33;44.01
73024;BME280;61199;47.526;8.538;2022-09-09T14:46:52;96211.06;;;23.45;43.68
73024;BME280;61199;47.526;8.538;2022-09-09T14:49:19;96209.47;;;23.62;43.16
73024;BME280;61199;47.526;8.538;2022-09-09T14:51:46;96217.78;;;23.54;42.95
73024;BME280;61199;47.526;8.538;2022-09-09T14:54:12;96222.19;;;23.67;43.30
73024;BME280;61199;47.526;8.538;2022-09-09T14:56:39;96210.00;;;23.53;42.80
73024;BME280;61199;47.526;8.538;2022-09-09T14:59:06;96221.63;;;23.83;43.04
73024;BME280;61199;47.526;8.538;2022-09-09T15:01:32;96227.44;;;23.80;42.36
73024;BME280;61199;47.526;8.538;2022-09-09T15:04:03;96226.66;;;23.97;42.16